sensor_id;sensor_type;location;lat;lon;timestamp;P1;durP1;ratioP1;P2;durP2;ratioP2
54555;SDS011;57291;37.520;15.106;2022-07-12T00:01:06;6.38;;;3.70;;
54555;SDS011;57291;37.520;15.106;2022-07-12T00:03:34;8.73;;;3.75;;
54555;SDS011;57291;37.520;15.106;2022-07-12T00:06:01;7.20;;;4.40;;
54555;SDS011;57291;37.520;15.106;2022-07-12T00:08:27;8.70;;;5.00;;
54555;SDS011;57291;37.520;15.106;2022-07-12T00:10:53;7.85;;;4.53;;
54555;SDS011;57291;37.520;15.106;2022-07-12T00:13:19;9.52;;;4.65;;
54555;SDS011;57291;37.520;15.106;2022-07-12T00:15:45;7.70;;;4.60;;
54555;SDS011;57291;37.520;15.106;2022-07-12T00:18:11;8.27;;;4.75;;
54555;SDS011;57291;37.520;15.106;2022-07-12T00:20:37;8.60;;;4.10;;
54555;SDS011;57291;37.520;15.106;2022-07-12T00:23:03;6.43;;;4.10;;
54555;SDS011;57291;37.520;15.106;2022-07-12T00:25:29;6.03;;;3.78;;
54555;SDS011;57291;37.520;15.106;2022-07-12T00:27:55;7.97;;;3.95;;
54555;SDS011;57291;37.520;15.106;2022-07-12T00:30:21;5.85;;;3.40;;
54555;SDS011;57291;37.520;15.106;2022-07-12T00:32:47;6.38;;;3.65;;
54555;SDS011;57291;37.520;15.106;2022-07-12T00:35:14;8.98;;;3.40;;
54555;SDS011;57291;37.520;15.106;2022-07-12T00:37:40;5.28;;;3.15;;
54555;SDS011;57291;37.520;15.106;2022-07-12T00:40:07;4.63;;;3.17;;
54555;SDS011;57291;37.520;15.106;2022-07-12T00:42:35;5.70;;;3.10;;
54555;SDS011;57291;37.520;15.106;2022-07-12T00:45:02;6.00;;;2.92;;
54555;SDS011;57291;37.520;15.106;2022-07-12T00:47:33;5.45;;;3.35;;
54555;SDS011;57291;37.520;15.106;2022-07-12T00:50:12;4.45;;;3.45;;
54555;SDS011;57291;37.520;15.106;2022-07-12T00:52:40;6.45;;;2.95;;
54555;SDS011;57291;37.520;15.106;2022-07-12T00:55:07;3.53;;;2.63;;
54555;SDS011;57291;37.520;15.106;2022-07-12T00:57:34;3.50;;;2.42;;
54555;SDS011;57291;37.520;15.106;2022-07-12T01:00:02;4.95;;;2.60;;
54555;SDS011;57291;37.520;15.106;2022-07-12T01:02:30;5.32;;;2.80;;
54555;SDS011;57291;37.520;15.106;2022-07-12T01:04:56;4.32;;;2.60;;
54555;SDS011;57291;37.520;15.106;2022-07-12T01:07:23;3.67;;;2.30;;
54555;SDS011;57291;37.520;15.106;2022-07-12T01:09:51;5.13;;;2.72;;
54555;SDS011;57291;37.520;15.106;2022-07-12T01:12:21;3.83;;;2.42;;
54555;SDS011;57291;37.520;15.106;2022-07-12T01:14:49;5.18;;;2.90;;
54555;SDS011;57291;37.520;15.106;2022-07-12T01:17:25;4.75;;;2.50;;
54555;SDS011;57291;37.520;15.106;2022-07-12T01:19:53;4.35;;;2.58;;
54555;SDS011;57291;37.520;15.106;2022-07-12T01:22:32;4.07;;;2.28;;
54555;SDS011;57291;37.520;15.106;2022-07-12T01:25:00;5.22;;;2.67;;
54555;SDS011;57291;37.520;15.106;2022-07-12T01:27:27;5.15;;;2.28;;
54555;SDS011;57291;37.520;15.106;2022-07-12T01:29:54;5.68;;;2.78;;
54555;SDS011;57291;37.520;15.106;2022-07-12T01:32:20;7.75;;;2.40;;
54555;SDS011;57291;37.520;15.106;2022-07-12T01:34:56;3.70;;;2.30;;
54555;SDS011;57291;37.520;15.106;2022-07-12T01:37:22;5.43;;;2.30;;
54555;SDS011;57291;37.520;15.106;2022-07-12T01:39:52;5.03;;;2.70;;
54555;SDS011;57291;37.520;15.106;2022-07-12T01:42:20;4.40;;;2.38;;
54555;SDS011;57291;37.520;15.106;2022-07-12T01:44:47;3.42;;;2.22;;
54555;SDS011;57291;37.520;15.106;2022-07-12T01:47:15;4.97;;;2.60;;
54555;SDS011;57291;37.520;15.106;2022-07-12T01:49:40;3.75;;;2.20;;
54555;SDS011;57291;37.520;15.106;2022-07-12T01:52:06;4.28;;;2.67;;
54555;SDS011;57291;37.520;15.106;2022-07-12T01:54:32;7.78;;;2.47;;
54555;SDS011;57291;37.520;15.106;2022-07-12T01:56:59;3.67;;;2.42;;
54555;SDS011;57291;37.520;15.106;2022-07-12T01:59:25;4.72;;;2.40;;
54555;SDS011;57291;37.520;15.106;2022-07-12T02:01:51;4.75;;;2.58;;
54555;SDS011;57291;37.520;15.106;2022-07-12T02:04:18;7.53;;;3.03;;
54555;SDS011;57291;37.520;15.106;2022-07-12T02:06:44;4.55;;;2.92;;
54555;SDS011;57291;37.520;15.106;2022-07-12T02:09:13;3.92;;;2.85;;
54555;SDS011;57291;37.520;15.106;2022-07-12T02:11:39;4.72;;;3.05;;
54555;SDS011;57291;37.520;15.106;2022-07-12T02:14:05;4.50;;;2.80;;
54555;SDS011;57291;37.520;15.106;2022-07-12T02:16:32;5.20;;;2.80;;
54555;SDS011;57291;37.520;15.106;2022-07-12T02:18:57;5.35;;;2.38;;
54555;SDS011;57291;37.520;15.106;2022-07-12T02:21:24;5.45;;;2.90;;
54555;SDS011;57291;37.520;15.106;2022-07-12T02:23:50;4.70;;;3.13;;
54555;SDS011;57291;37.520;15.106;2022-07-12T02:26:16;4.43;;;2.97;;
54555;SDS011;57291;37.520;15.106;2022-07-12T02:28:42;3.13;;;2.70;;
54555;SDS011;57291;37.520;15.106;2022-07-12T02:31:08;3.78;;;2.63;;
54555;SDS011;57291;37.520;15.106;2022-07-12T02:33:33;3.47;;;2.60;;
54555;SDS011;57291;37.520;15.106;2022-07-12T02:35:59;4.65;;;2.58;;
54555;SDS011;57291;37.520;15.106;2022-07-12T02:38:25;4.35;;;2.80;;
54555;SDS011;57291;37.520;15.106;2022-07-12T02:40:51;7.63;;;4.80;;
54555;SDS011;57291;37.520;15.106;2022-07-12T02:43:20;10.80;;;4.93;;
54555;SDS011;57291;37.520;15.106;2022-07-12T02:45:47;6.35;;;3.75;;
54555;SDS011;57291;37.520;15.106;2022-07-12T02:48:13;5.50;;;3.75;;
54555;SDS011;57291;37.520;15.106;2022-07-12T02:50:39;4.97;;;3.13;;
54555;SDS011;57291;37.520;15.106;2022-07-12T02:53:05;3.88;;;3.17;;
54555;SDS011;57291;37.520;15.106;2022-07-12T02:55:32;6.35;;;3.30;;
54555;SDS011;57291;37.520;15.106;2022-07-12T02:57:58;3.58;;;3.00;;
54555;SDS011;57291;37.520;15.106;2022-07-12T03:00:24;3.78;;;2.90;;
54555;SDS011;57291;37.520;15.106;2022-07-12T03:02:50;4.53;;;2.97;;
54555;SDS011;57291;37.520;15.106;2022-07-12T03:05:16;4.30;;;2.92;;
54555;SDS011;57291;37.520;15.106;2022-07-12T03:07:41;3.97;;;2.72;;
54555;SDS011;57291;37.520;15.106;2022-07-12T03:10:07;6.28;;;3.97;;
54555;SDS011;57291;37.520;15.106;2022-07-12T03:12:34;5.68;;;4.40;;
54555;SDS011;57291;37.520;15.106;2022-07-12T03:15:00;7.45;;;4.10;;
54555;SDS011;57291;37.520;15.106;2022-07-12T03:17:26;6.97;;;3.78;;
54555;SDS011;57291;37.520;15.106;2022-07-12T03:19:52;5.32;;;3.67;;
54555;SDS011;57291;37.520;15.106;2022-07-12T03:22:18;4.55;;;2.97;;
54555;SDS011;57291;37.520;15.106;2022-07-12T03:24:44;4.70;;;3.05;;
54555;SDS011;57291;37.520;15.106;2022-07-12T03:27:09;5.43;;;2.95;;
54555;SDS011;57291;37.520;15.106;2022-07-12T03:29:36;7.68;;;4.15;;
54555;SDS011;57291;37.520;15.106;2022-07-12T03:32:03;8.90;;;4.03;;
54555;SDS011;57291;37.520;15.106;2022-07-12T03:34:29;7.65;;;3.33;;
54555;SDS011;57291;37.520;15.106;2022-07-12T03:36:55;4.35;;;2.90;;
54555;SDS011;57291;37.520;15.106;2022-07-12T03:39:21;4.82;;;3.42;;
54555;SDS011;57291;37.520;15.106;2022-07-12T03:41:46;3.97;;;2.90;;
54555;SDS011;57291;37.520;15.106;2022-07-12T03:44:12;3.92;;;2.80;;
54555;SDS011;57291;37.520;15.106;2022-07-12T03:46:38;4.72;;;2.90;;
54555;SDS011;57291;37.520;15.106;2022-07-12T03:49:03;3.97;;;2.78;;
54555;SDS011;57291;37.520;15.106;2022-07-12T03:51:30;4.70;;;2.80;;
54555;SDS011;57291;37.520;15.106;2022-07-12T03:53:56;5.20;;;2.53;;
54555;SDS011;57291;37.520;15.106;2022-07-12T03:56:22;5.15;;;2.88;;
54555;SDS011;57291;37.520;15.106;2022-07-12T03:59:06;4.85;;;2.95;;
54555;SDS011;57291;37.520;15.106;2022-07-12T04:01:32;5.47;;;3.15;;
54555;SDS011;57291;37.520;15.106;2022-07-12T04:03:58;4.97;;;3.00;;
54555;SDS011;57291;37.520;15.106;2022-07-12T04:06:24;6.20;;;3.08;;
54555;SDS011;57291;37.520;15.106;2022-07-12T04:08:49;5.93;;;3.30;;
54555;SDS011;57291;37.520;15.106;2022-07-12T04:11:15;5.45;;;3.72;;
54555;SDS011;57291;37.520;15.106;2022-07-12T04:13:41;6.13;;;3.35;;
54555;SDS011;57291;37.520;15.106;2022-07-12T04:16:07;4.65;;;3.05;;
54555;SDS011;57291;37.520;15.106;2022-07-12T04:18:33;6.85;;;3.50;;
54555;SDS011;57291;37.520;15.106;2022-07-12T04:20:59;6.18;;;3.50;;
54555;SDS011;57291;37.520;15.106;2022-07-12T04:23:25;5.18;;;3.38;;
54555;SDS011;57291;37.520;15.106;2022-07-12T04:25:51;8.48;;;3.47;;
54555;SDS011;57291;37.520;15.106;2022-07-12T04:28:17;6.90;;;3.55;;
54555;SDS011;57291;37.520;15.106;2022-07-12T04:30:43;7.18;;;3.45;;
54555;SDS011;57291;37.520;15.106;2022-07-12T04:33:09;5.93;;;3.47;;
54555;SDS011;57291;37.520;15.106;2022-07-12T04:35:36;5.97;;;3.38;;
54555;SDS011;57291;37.520;15.106;2022-07-12T04:38:02;4.95;;;3.25;;
54555;SDS011;57291;37.520;15.106;2022-07-12T04:40:28;7.00;;;3.10;;
54555;SDS011;57291;37.520;15.106;2022-07-12T04:42:54;4.45;;;3.00;;
54555;SDS011;57291;37.520;15.106;2022-07-12T04:45:20;6.07;;;3.25;;
54555;SDS011;57291;37.520;15.106;2022-07-12T04:47:46;5.55;;;3.15;;
54555;SDS011;57291;37.520;15.106;2022-07-12T04:50:12;4.93;;;3.30;;
54555;SDS011;57291;37.520;15.106;2022-07-12T04:52:37;7.03;;;3.90;;
54555;SDS011;57291;37.520;15.106;2022-07-12T04:55:04;10.00;;;3.80;;
54555;SDS011;57291;37.520;15.106;2022-07-12T04:57:31;10.63;;;3.80;;
54555;SDS011;57291;37.520;15.106;2022-07-12T04:59:57;10.98;;;3.90;;
54555;SDS011;57291;37.520;15.106;2022-07-12T05:02:23;7.15;;;3.80;;
54555;SDS011;57291;37.520;15.106;2022-07-12T05:04:48;8.52;;;3.83;;
54555;SDS011;57291;37.520;15.106;2022-07-12T05:07:14;6.07;;;3.40;;
54555;SDS011;57291;37.520;15.106;2022-07-12T05:09:40;9.07;;;4.25;;
54555;SDS011;57291;37.520;15.106;2022-07-12T05:12:06;7.50;;;3.42;;
54555;SDS011;57291;37.520;15.106;2022-07-12T05:14:32;9.60;;;3.78;;
54555;SDS011;57291;37.520;15.106;2022-07-12T05:16:58;6.78;;;3.78;;
54555;SDS011;57291;37.520;15.106;2022-07-12T05:19:23;13.25;;;4.32;;
54555;SDS011;57291;37.520;15.106;2022-07-12T05:21:49;8.02;;;4.22;;
54555;SDS011;57291;37.520;15.106;2022-07-12T05:24:15;9.38;;;4.18;;
54555;SDS011;57291;37.520;15.106;2022-07-12T05:26:41;11.00;;;4.05;;
54555;SDS011;57291;37.520;15.106;2022-07-12T05:29:07;9.27;;;3.95;;
54555;SDS011;57291;37.520;15.106;2022-07-12T05:31:33;7.60;;;3.55;;
54555;SDS011;57291;37.520;15.106;2022-07-12T05:33:59;8.40;;;3.88;;
54555;SDS011;57291;37.520;15.106;2022-07-12T05:36:25;8.95;;;3.70;;
54555;SDS011;57291;37.520;15.106;2022-07-12T05:38:51;8.88;;;3.55;;
54555;SDS011;57291;37.520;15.106;2022-07-12T05:41:17;9.73;;;3.65;;
54555;SDS011;57291;37.520;15.106;2022-07-12T05:43:42;6.65;;;3.65;;
54555;SDS011;57291;37.520;15.106;2022-07-12T05:46:09;5.32;;;3.20;;
54555;SDS011;57291;37.520;15.106;2022-07-12T05:48:35;10.57;;;3.28;;
54555;SDS011;57291;37.520;15.106;2022-07-12T05:51:02;8.32;;;3.10;;
54555;SDS011;57291;37.520;15.106;2022-07-12T05:53:46;6.00;;;3.17;;
54555;SDS011;57291;37.520;15.106;2022-07-12T05:56:12;6.28;;;3.70;;
54555;SDS011;57291;37.520;15.106;2022-07-12T05:58:38;7.00;;;3.70;;
54555;SDS011;57291;37.520;15.106;2022-07-12T06:01:05;7.43;;;3.47;;
54555;SDS011;57291;37.520;15.106;2022-07-12T06:03:32;7.30;;;3.10;;
54555;SDS011;57291;37.520;15.106;2022-07-12T06:05:57;5.75;;;3.47;;
54555;SDS011;57291;37.520;15.106;2022-07-12T06:08:24;5.97;;;2.80;;
54555;SDS011;57291;37.520;15.106;2022-07-12T06:10:49;7.68;;;3.17;;
54555;SDS011;57291;37.520;15.106;2022-07-12T06:13:15;9.38;;;3.10;;
54555;SDS011;57291;37.520;15.106;2022-07-12T06:15:41;7.18;;;3.30;;
54555;SDS011;57291;37.520;15.106;2022-07-12T06:18:07;7.10;;;2.70;;
54555;SDS011;57291;37.520;15.106;2022-07-12T06:20:33;4.45;;;2.30;;
54555;SDS011;57291;37.520;15.106;2022-07-12T06:22:59;7.38;;;2.20;;
54555;SDS011;57291;37.520;15.106;2022-07-12T06:25:24;6.85;;;2.50;;
54555;SDS011;57291;37.520;15.106;2022-07-12T06:27:51;5.32;;;2.28;;
54555;SDS011;57291;37.520;15.106;2022-07-12T06:30:17;4.65;;;2.28;;
54555;SDS011;57291;37.520;15.106;2022-07-12T06:32:47;4.15;;;2.40;;
54555;SDS011;57291;37.520;15.106;2022-07-12T06:35:13;3.83;;;2.10;;
54555;SDS011;57291;37.520;15.106;2022-07-12T06:37:40;4.32;;;1.73;;
54555;SDS011;57291;37.520;15.106;2022-07-12T06:40:07;4.22;;;1.95;;
54555;SDS011;57291;37.520;15.106;2022-07-12T06:42:34;3.55;;;1.98;;
54555;SDS011;57291;37.520;15.106;2022-07-12T06:45:00;4.10;;;1.90;;
54555;SDS011;57291;37.520;15.106;2022-07-12T06:47:26;2.67;;;1.67;;
54555;SDS011;57291;37.520;15.106;2022-07-12T06:49:52;5.43;;;1.80;;
54555;SDS011;57291;37.520;15.106;2022-07-12T06:52:18;2.72;;;1.73;;
54555;SDS011;57291;37.520;15.106;2022-07-12T06:54:44;5.22;;;2.00;;
54555;SDS011;57291;37.520;15.106;2022-07-12T06:57:09;4.28;;;2.08;;
54555;SDS011;57291;37.520;15.106;2022-07-12T06:59:35;8.73;;;2.13;;
54555;SDS011;57291;37.520;15.106;2022-07-12T07:02:01;2.83;;;1.85;;
54555;SDS011;57291;37.520;15.106;2022-07-12T07:04:27;3.13;;;1.88;;
54555;SDS011;57291;37.520;15.106;2022-07-12T07:06:53;6.22;;;1.90;;
54555;SDS011;57291;37.520;15.106;2022-07-12T07:09:19;4.05;;;2.10;;
54555;SDS011;57291;37.520;15.106;2022-07-12T07:11:45;3.75;;;2.10;;
54555;SDS011;57291;37.520;15.106;2022-07-12T07:14:11;4.85;;;1.92;;
54555;SDS011;57291;37.520;15.106;2022-07-12T07:16:36;5.88;;;2.40;;
54555;SDS011;57291;37.520;15.106;2022-07-12T07:19:02;3.53;;;2.15;;
54555;SDS011;57291;37.520;15.106;2022-07-12T07:21:28;3.15;;;1.90;;
54555;SDS011;57291;37.520;15.106;2022-07-12T07:23:54;5.28;;;1.83;;
54555;SDS011;57291;37.520;15.106;2022-07-12T07:26:21;3.65;;;1.90;;
54555;SDS011;57291;37.520;15.106;2022-07-12T07:28:47;3.17;;;1.88;;
54555;SDS011;57291;37.520;15.106;2022-07-12T07:31:35;3.33;;;2.05;;
54555;SDS011;57291;37.520;15.106;2022-07-12T07:34:01;4.68;;;2.08;;
54555;SDS011;57291;37.520;15.106;2022-07-12T07:36:27;6.78;;;2.20;;
54555;SDS011;57291;37.520;15.106;2022-07-12T07:38:53;4.72;;;2.20;;
54555;SDS011;57291;37.520;15.106;2022-07-12T07:41:19;4.90;;;2.22;;
54555;SDS011;57291;37.520;15.106;2022-07-12T07:43:45;5.32;;;1.95;;
54555;SDS011;57291;37.520;15.106;2022-07-12T07:46:11;4.03;;;2.13;;
54555;SDS011;57291;37.520;15.106;2022-07-12T07:48:37;4.13;;;1.95;;
54555;SDS011;57291;37.520;15.106;2022-07-12T07:51:03;4.20;;;2.10;;
54555;SDS011;57291;37.520;15.106;2022-07-12T07:53:29;2.53;;;1.85;;
54555;SDS011;57291;37.520;15.106;2022-07-12T07:55:55;2.47;;;1.90;;
54555;SDS011;57291;37.520;15.106;2022-07-12T07:58:20;5.35;;;2.47;;
54555;SDS011;57291;37.520;15.106;2022-07-12T08:00:46;2.60;;;1.83;;
54555;SDS011;57291;37.520;15.106;2022-07-12T08:03:15;5.03;;;1.90;;
54555;SDS011;57291;37.520;15.106;2022-07-12T08:05:40;5.22;;;2.13;;
54555;SDS011;57291;37.520;15.106;2022-07-12T08:08:06;5.00;;;2.20;;
54555;SDS011;57291;37.520;15.106;2022-07-12T08:10:32;4.13;;;1.88;;
54555;SDS011;57291;37.520;15.106;2022-07-12T08:12:58;2.53;;;1.65;;
54555;SDS011;57291;37.520;15.106;2022-07-12T08:15:25;4.97;;;1.88;;
54555;SDS011;57291;37.520;15.106;2022-07-12T08:17:51;3.72;;;2.00;;
54555;SDS011;57291;37.520;15.106;2022-07-12T08:20:17;5.00;;;1.98;;
54555;SDS011;57291;37.520;15.106;2022-07-12T08:22:44;4.25;;;1.80;;
54555;SDS011;57291;37.520;15.106;2022-07-12T08:25:13;5.13;;;2.30;;
54555;SDS011;57291;37.520;15.106;2022-07-12T08:27:39;5.20;;;2.08;;
54555;SDS011;57291;37.520;15.106;2022-07-12T08:30:05;4.47;;;2.10;;
54555;SDS011;57291;37.520;15.106;2022-07-12T08:32:31;4.75;;;2.22;;
54555;SDS011;57291;37.520;15.106;2022-07-12T08:34:57;2.42;;;1.75;;
54555;SDS011;57291;37.520;15.106;2022-07-12T08:37:23;4.22;;;1.80;;
54555;SDS011;57291;37.520;15.106;2022-07-12T08:39:48;4.88;;;2.30;;
54555;SDS011;57291;37.520;15.106;2022-07-12T08:42:15;3.55;;;2.10;;
54555;SDS011;57291;37.520;15.106;2022-07-12T08:44:42;3.55;;;2.10;;
54555;SDS011;57291;37.520;15.106;2022-07-12T08:47:08;5.65;;;2.08;;
54555;SDS011;57291;37.520;15.106;2022-07-12T08:49:35;3.22;;;1.90;;
54555;SDS011;57291;37.520;15.106;2022-07-12T08:52:23;4.10;;;2.05;;
54555;SDS011;57291;37.520;15.106;2022-07-12T08:54:51;6.55;;;2.28;;
54555;SDS011;57291;37.520;15.106;2022-07-12T09:00:05;5.07;;;1.92;;
54555;SDS011;57291;37.520;15.106;2022-07-12T09:02:42;4.20;;;2.08;;
54555;SDS011;57291;37.520;15.106;2022-07-12T09:05:12;5.22;;;2.28;;
54555;SDS011;57291;37.520;15.106;2022-07-12T09:07:39;5.82;;;2.10;;
54555;SDS011;57291;37.520;15.106;2022-07-12T09:10:05;4.85;;;2.03;;
54555;SDS011;57291;37.520;15.106;2022-07-12T09:12:35;3.20;;;1.83;;
54555;SDS011;57291;37.520;15.106;2022-07-12T09:20:25;3.95;;;2.00;;
54555;SDS011;57291;37.520;15.106;2022-07-12T09:22:53;4.20;;;2.00;;
54555;SDS011;57291;37.520;15.106;2022-07-12T09:25:20;5.40;;;2.10;;
54555;SDS011;57291;37.520;15.106;2022-07-12T09:27:54;5.90;;;2.40;;
54555;SDS011;57291;37.520;15.106;2022-07-12T09:30:22;5.65;;;2.30;;
54555;SDS011;57291;37.520;15.106;2022-07-12T09:32:53;5.05;;;2.28;;
54555;SDS011;57291;37.520;15.106;2022-07-12T09:35:38;4.70;;;2.13;;
54555;SDS011;57291;37.520;15.106;2022-07-12T09:38:23;6.68;;;2.50;;
54555;SDS011;57291;37.520;15.106;2022-07-12T09:40:50;3.80;;;2.15;;
54555;SDS011;57291;37.520;15.106;2022-07-12T09:43:16;4.18;;;2.50;;
54555;SDS011;57291;37.520;15.106;2022-07-12T09:45:43;4.18;;;2.53;;
54555;SDS011;57291;37.520;15.106;2022-07-12T09:48:12;6.38;;;2.85;;
54555;SDS011;57291;37.520;15.106;2022-07-12T09:50:38;4.68;;;2.03;;
54555;SDS011;57291;37.520;15.106;2022-07-12T09:53:04;3.42;;;2.40;;
54555;SDS011;57291;37.520;15.106;2022-07-12T09:55:35;3.88;;;2.72;;
54555;SDS011;57291;37.520;15.106;2022-07-12T09:58:03;4.55;;;2.20;;
54555;SDS011;57291;37.520;15.106;2022-07-12T10:00:30;4.43;;;2.28;;
54555;SDS011;57291;37.520;15.106;2022-07-12T10:02:57;5.97;;;2.13;;
54555;SDS011;57291;37.520;15.106;2022-07-12T10:05:24;3.85;;;2.63;;
54555;SDS011;57291;37.520;15.106;2022-07-12T10:07:51;3.65;;;2.67;;
54555;SDS011;57291;37.520;15.106;2022-07-12T10:10:17;3.90;;;1.98;;
54555;SDS011;57291;37.520;15.106;2022-07-12T10:12:43;5.55;;;2.10;;
54555;SDS011;57291;37.520;15.106;2022-07-12T10:15:14;3.78;;;1.98;;
54555;SDS011;57291;37.520;15.106;2022-07-12T10:17:52;3.47;;;1.90;;
54555;SDS011;57291;37.520;15.106;2022-07-12T10:20:21;4.47;;;2.20;;
54555;SDS011;57291;37.520;15.106;2022-07-12T10:22:49;3.28;;;1.92;;
54555;SDS011;57291;37.520;15.106;2022-07-12T10:25:30;4.07;;;2.20;;
54555;SDS011;57291;37.520;15.106;2022-07-12T10:27:57;3.10;;;2.17;;
54555;SDS011;57291;37.520;15.106;2022-07-12T10:30:24;3.65;;;1.92;;
54555;SDS011;57291;37.520;15.106;2022-07-12T10:32:52;4.70;;;1.80;;
54555;SDS011;57291;37.520;15.106;2022-07-12T10:35:23;6.65;;;1.98;;
54555;SDS011;57291;37.520;15.106;2022-07-12T10:40:38;3.72;;;2.00;;
54555;SDS011;57291;37.520;15.106;2022-07-12T10:45:31;4.30;;;2.00;;
54555;SDS011;57291;37.520;15.106;2022-07-12T10:48:20;3.20;;;2.03;;
54555;SDS011;57291;37.520;15.106;2022-07-12T10:53:34;3.80;;;1.88;;
54555;SDS011;57291;37.520;15.106;2022-07-12T10:58:47;4.38;;;2.17;;
54555;SDS011;57291;37.520;15.106;2022-07-12T11:01:33;2.85;;;1.90;;
54555;SDS011;57291;37.520;15.106;2022-07-12T11:06:36;4.35;;;2.00;;
54555;SDS011;57291;37.520;15.106;2022-07-12T11:09:07;3.33;;;1.88;;
54555;SDS011;57291;37.520;15.106;2022-07-12T11:11:35;3.20;;;1.95;;
54555;SDS011;57291;37.520;15.106;2022-07-12T11:14:09;3.17;;;2.00;;
54555;SDS011;57291;37.520;15.106;2022-07-12T11:16:46;4.22;;;2.08;;
54555;SDS011;57291;37.520;15.106;2022-07-12T11:19:13;4.40;;;2.20;;
54555;SDS011;57291;37.520;15.106;2022-07-12T11:21:42;5.15;;;2.15;;
54555;SDS011;57291;37.520;15.106;2022-07-12T11:24:16;3.67;;;1.98;;
54555;SDS011;57291;37.520;15.106;2022-07-12T11:26:46;3.75;;;2.05;;
54555;SDS011;57291;37.520;15.106;2022-07-12T11:29:12;4.13;;;2.00;;
54555;SDS011;57291;37.520;15.106;2022-07-12T11:31:38;2.03;;;1.70;;
54555;SDS011;57291;37.520;15.106;2022-07-12T11:34:04;5.03;;;1.90;;
54555;SDS011;57291;37.520;15.106;2022-07-12T11:36:30;2.80;;;1.98;;
54555;SDS011;57291;37.520;15.106;2022-07-12T11:38:58;4.07;;;2.13;;
54555;SDS011;57291;37.520;15.106;2022-07-12T11:41:25;2.17;;;1.70;;
54555;SDS011;57291;37.520;15.106;2022-07-12T11:43:51;2.83;;;1.85;;
54555;SDS011;57291;37.520;15.106;2022-07-12T11:46:17;3.33;;;1.50;;
54555;SDS011;57291;37.520;15.106;2022-07-12T11:48:43;4.57;;;1.80;;
54555;SDS011;57291;37.520;15.106;2022-07-12T11:51:09;3.83;;;1.80;;
54555;SDS011;57291;37.520;15.106;2022-07-12T11:53:37;5.85;;;1.92;;
54555;SDS011;57291;37.520;15.106;2022-07-12T11:56:05;2.28;;;1.42;;
54555;SDS011;57291;37.520;15.106;2022-07-12T11:58:33;3.83;;;1.55;;
54555;SDS011;57291;37.520;15.106;2022-07-12T12:01:03;3.55;;;1.70;;
54555;SDS011;57291;37.520;15.106;2022-07-12T12:03:41;3.10;;;1.70;;
54555;SDS011;57291;37.520;15.106;2022-07-12T12:06:09;2.95;;;1.85;;
54555;SDS011;57291;37.520;15.106;2022-07-12T12:08:35;3.42;;;1.95;;
54555;SDS011;57291;37.520;15.106;2022-07-12T12:11:00;2.10;;;1.48;;
54555;SDS011;57291;37.520;15.106;2022-07-12T12:13:27;3.40;;;1.90;;
54555;SDS011;57291;37.520;15.106;2022-07-12T12:15:56;4.25;;;1.88;;
54555;SDS011;57291;37.520;15.106;2022-07-12T12:18:33;2.05;;;1.50;;
54555;SDS011;57291;37.520;15.106;2022-07-12T12:21:04;2.42;;;1.40;;
54555;SDS011;57291;37.520;15.106;2022-07-12T12:23:32;4.03;;;1.58;;
54555;SDS011;57291;37.520;15.106;2022-07-12T12:26:11;2.65;;;1.50;;
54555;SDS011;57291;37.520;15.106;2022-07-12T12:28:43;3.95;;;1.58;;
54555;SDS011;57291;37.520;15.106;2022-07-12T12:31:20;4.07;;;1.60;;
54555;SDS011;57291;37.520;15.106;2022-07-12T12:33:47;2.80;;;1.55;;
54555;SDS011;57291;37.520;15.106;2022-07-12T12:36:15;3.20;;;1.50;;
54555;SDS011;57291;37.520;15.106;2022-07-12T12:38:43;3.00;;;1.70;;
54555;SDS011;57291;37.520;15.106;2022-07-12T12:41:10;4.43;;;1.77;;
54555;SDS011;57291;37.520;15.106;2022-07-12T12:43:36;5.05;;;1.50;;
54555;SDS011;57291;37.520;15.106;2022-07-12T12:46:03;3.97;;;1.67;;
54555;SDS011;57291;37.520;15.106;2022-07-12T12:48:30;2.58;;;1.80;;
54555;SDS011;57291;37.520;15.106;2022-07-12T12:51:08;3.67;;;1.48;;
54555;SDS011;57291;37.520;15.106;2022-07-12T12:53:39;6.80;;;1.60;;
54555;SDS011;57291;37.520;15.106;2022-07-12T12:56:06;4.35;;;1.52;;
54555;SDS011;57291;37.520;15.106;2022-07-12T12:58:34;4.85;;;1.45;;
54555;SDS011;57291;37.520;15.106;2022-07-12T13:01:00;5.38;;;1.75;;
54555;SDS011;57291;37.520;15.106;2022-07-12T13:03:26;2.75;;;1.40;;
54555;SDS011;57291;37.520;15.106;2022-07-12T13:05:52;3.92;;;1.25;;
54555;SDS011;57291;37.520;15.106;2022-07-12T13:08:18;3.95;;;1.42;;
54555;SDS011;57291;37.520;15.106;2022-07-12T13:10:45;3.03;;;1.42;;
54555;SDS011;57291;37.520;15.106;2022-07-12T13:13:11;4.78;;;1.80;;
54555;SDS011;57291;37.520;15.106;2022-07-12T13:15:38;3.65;;;1.70;;
54555;SDS011;57291;37.520;15.106;2022-07-12T13:18:04;3.88;;;1.40;;
54555;SDS011;57291;37.520;15.106;2022-07-12T13:20:31;5.32;;;2.03;;
54555;SDS011;57291;37.520;15.106;2022-07-12T13:22:58;4.35;;;1.88;;
54555;SDS011;57291;37.520;15.106;2022-07-12T13:25:24;2.58;;;1.52;;
54555;SDS011;57291;37.520;15.106;2022-07-12T13:27:51;4.05;;;1.90;;
54555;SDS011;57291;37.520;15.106;2022-07-12T13:30:18;2.92;;;1.73;;
54555;SDS011;57291;37.520;15.106;2022-07-12T13:32:45;4.75;;;1.65;;
54555;SDS011;57291;37.520;15.106;2022-07-12T13:35:11;3.90;;;1.75;;
54555;SDS011;57291;37.520;15.106;2022-07-12T13:37:39;2.95;;;1.85;;
54555;SDS011;57291;37.520;15.106;2022-07-12T13:40:06;2.25;;;1.63;;
54555;SDS011;57291;37.520;15.106;2022-07-12T13:42:48;2.72;;;1.60;;
54555;SDS011;57291;37.520;15.106;2022-07-12T13:45:21;2.60;;;1.73;;
54555;SDS011;57291;37.520;15.106;2022-07-12T13:47:49;3.45;;;1.70;;
54555;SDS011;57291;37.520;15.106;2022-07-12T13:50:17;2.50;;;1.70;;
54555;SDS011;57291;37.520;15.106;2022-07-12T13:52:45;8.77;;;1.98;;
54555;SDS011;57291;37.520;15.106;2022-07-12T13:55:13;7.18;;;2.10;;
54555;SDS011;57291;37.520;15.106;2022-07-12T13:57:40;3.47;;;1.60;;
54555;SDS011;57291;37.520;15.106;2022-07-12T14:00:08;4.22;;;2.08;;
54555;SDS011;57291;37.520;15.106;2022-07-12T14:02:40;4.10;;;1.60;;
54555;SDS011;57291;37.520;15.106;2022-07-12T14:05:07;4.57;;;1.65;;
54555;SDS011;57291;37.520;15.106;2022-07-12T14:07:38;2.58;;;1.70;;
54555;SDS011;57291;37.520;15.106;2022-07-12T14:10:06;6.43;;;2.03;;
54555;SDS011;57291;37.520;15.106;2022-07-12T14:12:33;3.88;;;1.67;;
54555;SDS011;57291;37.520;15.106;2022-07-12T14:14:59;3.33;;;1.60;;
54555;SDS011;57291;37.520;15.106;2022-07-12T14:17:38;3.17;;;1.60;;
54555;SDS011;57291;37.520;15.106;2022-07-12T14:20:16;3.47;;;2.13;;
54555;SDS011;57291;37.520;15.106;2022-07-12T14:22:43;6.18;;;1.90;;
54555;SDS011;57291;37.520;15.106;2022-07-12T14:25:09;3.63;;;1.42;;
54555;SDS011;57291;37.520;15.106;2022-07-12T14:27:36;3.10;;;1.60;;
54555;SDS011;57291;37.520;15.106;2022-07-12T14:30:03;3.88;;;1.52;;
54555;SDS011;57291;37.520;15.106;2022-07-12T14:32:31;2.40;;;1.65;;
54555;SDS011;57291;37.520;15.106;2022-07-12T14:34:57;5.50;;;1.50;;
54555;SDS011;57291;37.520;15.106;2022-07-12T14:37:23;2.08;;;1.30;;
54555;SDS011;57291;37.520;15.106;2022-07-12T14:39:48;2.55;;;1.38;;
54555;SDS011;57291;37.520;15.106;2022-07-12T14:42:14;2.38;;;1.45;;
54555;SDS011;57291;37.520;15.106;2022-07-12T14:44:40;3.22;;;1.60;;
54555;SDS011;57291;37.520;15.106;2022-07-12T14:47:07;2.83;;;1.30;;
54555;SDS011;57291;37.520;15.106;2022-07-12T14:49:34;3.38;;;1.45;;
54555;SDS011;57291;37.520;15.106;2022-07-12T14:52:00;2.15;;;1.50;;
54555;SDS011;57291;37.520;15.106;2022-07-12T14:54:25;2.10;;;1.33;;
54555;SDS011;57291;37.520;15.106;2022-07-12T14:56:51;4.97;;;1.60;;